Flight Track Log - Related Links

Times and Time Zones

All times are in EST time to prevent confusion due to time zone crossing. See the JBU1384 flight status page for this flight to view local times or setup timezone preferences in your user account.

Time Position Orientation Groundspeed Altitude Reporting Facility
EST Latitude Longitude Course Direction KTS MPH feet Rate Location/Type
Sun 06:47:29 PM 35.8967 -78.7767 39° Northeast 154 177 1,400  Level Washington Center
Sun 06:48:24 PM 35.9292 -78.7369 45° Northeast 200 230 3,100 2,276 Climbing Washington Center
Sun 06:49:25 PM 35.9311 -78.6575 88° East 261 300 5,800 2,842 Climbing Washington Center
Sun 06:49:40 PM 35.9317 -78.6319 88° East 302 348 6,700 2,805 Climbing Washington Center
Sun 06:50:00 PM 36.2177 -78.4263 82° East  Level Estimated
Sun 06:50:42 PM 35.9278 -78.5367 93° East 297 342 9,400  Level Washington Center
Sun 06:51:00 PM 36.1739 -78.2985 113° Southeast  Level FlightAware Approximate
Sun 06:51:43 PM 35.9244 -78.4264 92° East 313 360 11,500  Level Washington Center
Sun 06:52:00 PM 36.2596 -78.2090 39° Northeast  Level Estimated
Sun 06:52:40 PM 35.9231 -78.2981 91° East 346 398 13,200  Level Washington Center
Sun 06:53:40 PM 35.9364 -78.1650 83° East 384 442 15,700 2,361 Climbing Washington Center
Sun 06:54:42 PM 35.9478 -78.0269 84° East 398 458 18,000 1,800 Climbing Washington Center
Sun 06:55:40 PM 35.9611 -77.8836 83° East 405 466 19,300 1,563 Climbing Washington Center
Sun 06:56:41 PM 35.9825 -77.7353 80° East 416 479 21,100 1,736 Climbing Washington Center
Sun 06:57:41 PM 36.0594 -77.6322 47° Northeast 406 467 22,800 1,563 Climbing Washington Center
Sun 06:58:40 PM 36.1547 -77.5419 37° Northeast 405 466 24,200 1,261 Climbing Washington Center
Sun 06:59:40 PM 36.2481 -77.4514 38° Northeast 410 472 25,300 1,190 Climbing Washington Center
Sun 07:00:41 PM 36.3497 -77.3586 36° Northeast 428 493 26,600 1,041 Climbing Washington Center
Sun 07:01:41 PM 36.4533 -77.2628 37° Northeast 449 517 27,400 694 Climbing Washington Center
Sun 07:02:42 PM 36.5569 -77.1589 39° Northeast 460 529 28,000 655 Climbing Washington Center
Sun 07:03:40 PM 36.6708 -77.0525 37° Northeast 487 560 28,700 508 Climbing Washington Center
Sun 07:04:40 PM 36.7847 -76.9483 36° Northeast 495 570 29,000 149 Climbing Washington Center
Sun 07:05:41 PM 36.8964 -76.8464 36° Northeast 500 575 29,000  Level Washington Center
Sun 07:06:41 PM 37.0017 -76.7517 36° Northeast 512 589 29,000  Level Washington Center
Sun 07:07:42 PM 37.1153 -76.6494 36° Northeast 507 583 29,000 454 Level Washington Center
Sun 07:08:40 PM 37.2289 -76.5467 36° Northeast 507 583 29,900 1,017 Climbing Washington Center
Sun 07:09:40 PM 37.3400 -76.4408 37° Northeast 507 583 31,000 545 Climbing Washington Center
Sun 07:10:41 PM 37.4556 -76.3375 35° Northeast 507 583 31,000  Level Washington Center
Sun 07:11:41 PM 37.5686 -76.2336 36° Northeast 507 583 31,000  Level Washington Center
Sun 07:12:42 PM 37.6839 -76.1375 33° Northeast 507 583 31,000  Level Washington Center
Sun 07:13:40 PM 37.7950 -76.0256 39° Northeast 502 578 31,000  Level Washington Center
Sun 07:14:41 PM 37.9058 -75.9208 37° Northeast 502 578 31,000  Level Washington Center
Sun 07:15:41 PM 38.0186 -75.8183 36° Northeast 502 578 31,000 504 Level Washington Center
Sun 07:16:40 PM 38.1500 -75.7211 30° Northeast 497 572 32,000 958 Climbing Washington Center
Sun 07:17:40 PM 38.2733 -75.6525 24° Northeast 491 565 32,900 164 Climbing Washington Center
Sun 07:22:45 PM 38.8650 -75.3410 24° Northeast 100 115 33,000 16 Climbing FlightAware ADS-B
Sun 07:23:51 PM 38.9880 -75.2550 29° Northeast 503 579 33,000  Level FlightAware ADS-B
Sun 07:24:52 PM 39.0930 -75.1770 30° Northeast 503 579 33,000  Level FlightAware ADS-B
Sun 07:26:10 PM 39.2640 -75.0100 37° Northeast 503 579 33,000  Level FlightAware ADS-B
Sun 07:26:34 PM 39.3030 -74.9750 35° Northeast 503 579 33,000  Level FlightAware ADS-B
Sun 07:27:27 PM 39.4000 -74.8900 34° Northeast 503 579 33,000  Level FlightAware ADS-B
Sun 07:28:15 PM 39.4780 -74.8210 34° Northeast 503 579 33,000  Level FlightAware ADS-B
Sun 07:29:05 PM 39.6020 -74.7060 36° Northeast 507 583 33,000  Level FlightAware ADS-B
Sun 07:29:20 PM 39.6330 -74.6770 36° Northeast 507 583 33,000  Level FlightAware ADS-B
Sun 07:29:45 PM 39.6880 -74.6440 25° Northeast 504 580 33,000  Level FlightAware ADS-B
Sun 07:30:30 PM 39.7600 -74.5610 42° Northeast 474 545 33,000  Level FlightAware ADS-B
Sun 07:31:10 PM 39.8430 -74.4930 32° Northeast 530 610 33,000  Level FlightAware ADS-B
Sun 07:31:35 PM 39.8860 -74.4510 37° Northeast 480 552 33,000  Level FlightAware ADS-B
Sun 07:32:00 PM 39.9400 -74.4020 35° Northeast 493 567 33,000  Level FlightAware ADS-B
Sun 07:32:25 PM 39.9880 -74.3580 35° Northeast 515 593 33,000  Level FlightAware ADS-B
Sun 07:33:17 PM 40.0780 -74.2650 38° Northeast 511 588 33,000  Level FlightAware ADS-B
Sun 07:34:10 PM 40.1810 -74.1580 38° Northeast 497 572 33,000  Level FlightAware ADS-B
Sun 07:34:30 PM 40.2180 -74.1190 39° Northeast 497 572 33,000  Level FlightAware ADS-B
Sun 07:34:55 PM 40.2640 -74.0710 39° Northeast 497 572 33,000  Level FlightAware ADS-B
Sun 07:35:15 PM 40.2990 -74.0340 39° Northeast 514 592 33,000  Level FlightAware ADS-B
Sun 07:36:15 PM 40.4030 -73.9160 41° Northeast 512 589 33,000  Level FlightAware ADS-B
Sun 07:36:45 PM 40.4650 -73.8630 33° Northeast 503 579 33,000 -871 Level FlightAware ADS-B
Sun 07:37:17 PM 40.5210 -73.8020 40° Northeast 529 609 32,100 -1,846 Descending FlightAware ADS-B
Sun 07:37:50 PM 40.5810 -73.7400 38° Northeast 489 563 31,000 -2,024 Descending FlightAware ADS-B
Sun 07:38:40 PM 40.6700 -73.6430 40° Northeast 485 558 29,300 -1,900 Descending FlightAware ADS-B
Sun 07:38:50 PM 40.6810 -73.6320 37° Northeast 485 558 29,100 -162 Descending FlightAware ADS-B
Sun 07:39:54 PM 40.7720 -73.5240 42° Northeast 485 558 29,100  Level FlightAware ADS-B
Sun 07:40:42 PM 40.8400 -73.4430 42° Northeast 485 558 29,100  Level FlightAware ADS-B
Sun 07:41:32 PM 40.9110 -73.3590 42° Northeast 485 558 29,100 -1,223 Level FlightAware ADS-B
Sun 07:42:25 PM 41.0030 -73.2270 47° Northeast 438 504 27,000 -1,077 Descending FlightAware ADS-B
Sun 07:43:29 PM 41.0790 -73.1210 46° Northeast 438 504 27,000  Level FlightAware ADS-B
Sun 07:44:06 PM 41.1240 -73.0610 45° Northeast 438 504 27,000  Level FlightAware ADS-B
Sun 07:44:31 PM 41.1530 -73.0190 47° Northeast 438 504 27,000  Level FlightAware ADS-B
Sun 07:45:19 PM 41.2110 -72.9400 46° Northeast 438 504 27,000  Level FlightAware ADS-B
Sun 07:46:20 PM 41.2840 -72.8400 46° Northeast 438 504 27,000 -2,162 Level FlightAware ADS-B
Sun 07:47:10 PM 41.3356 -72.5856 46° Northeast 440 506 23,000 -2,162 Descending Boston Center
Sun 07:48:11 PM 41.3858 -72.4350 66° East 443 510 23,000 -397 Level Boston Center
Sun 07:49:11 PM 41.4378 -72.2853 65° Northeast 443 510 22,200 -1,550 Descending Boston Center
Sun 07:50:11 PM 41.4867 -72.1436 65° Northeast 423 487 19,900 -2,213 Descending Boston Center
Sun 07:51:13 PM 41.5414 -71.9822 66° East 408 470 17,700 -2,146 Descending Boston Center
Sun 07:52:14 PM 41.5850 -71.8503 66° East 389 448 15,500 -2,226 Descending Boston Center
Sun 07:53:17 PM 41.6289 -71.7181 66° East 363 418 13,100 -2,195 Descending Boston Center
Sun 07:54:17 PM 41.6692 -71.5981 66° East 358 412 11,000 -1,033 Descending Boston Center
Sun 07:55:19 PM 41.7039 -71.4925 66° East 313 360 11,000  Level Boston Center
Sun 07:56:20 PM 41.7508 -71.3936 58° Northeast 301 346 11,000  Level Boston Center
Sun 07:57:21 PM 41.8069 -71.3119 47° Northeast 298 343 11,000 -198 Level Boston Center
Sun 07:58:21 PM 41.8714 -71.2478 37° Northeast 295 339 10,600 -843 Descending Boston Center
Sun 07:59:22 PM 41.9508 -71.2064 21° North 286 329 9,300 -1,403 Descending Boston Center
Sun 08:00:25 PM 42.0239 -71.1686 21° North 283 326 7,700 -1,645 Descending Boston Center
Sun 08:01:26 PM 42.0939 -71.1356 19° North 269 310 5,900 -1,600 Descending Boston Center
Sun 08:02:25 PM 42.1606 -71.1103 16° North 251 289 4,500 -1,377 Descending Boston Center
Sun 08:03:28 PM 42.2247 -71.0806 19° North 228 262 3,100 -1,263 Descending Boston Center
Sun 08:04:38 PM 42.2833 -71.0500 21° North 182 209 1,700 -1,065 Descending KA90
Sun 08:05:32 PM 42.3167 -71.0333 20° North 122 140 900 -789 Descending KA90
Sun 08:06:32 PM 42.3500 -71.0167 20° North 126 145 200 -700 Descending KA90

Login

Don't have an account? Register now (free) for customized features, flight alerts, and more!